sensor_id;sensor_type;location;lat;lon;timestamp;pressure;altitude;pressure_sealevel;temperature;humidity
7760;BME280;3924;48.830;9.262;2022-08-20T00:00:55;98450.91;;;21.24;71.66
7760;BME280;3924;48.830;9.262;2022-08-20T00:03:31;98456.31;;;21.20;71.40
7760;BME280;3924;48.830;9.262;2022-08-20T00:06:11;98457.88;;;21.18;71.15
7760;BME280;3924;48.830;9.262;2022-08-20T00:08:39;98456.19;;;21.13;71.34
7760;BME280;3924;48.830;9.262;2022-08-20T00:11:08;98460.50;;;21.11;71.12
7760;BME280;3924;48.830;9.262;2022-08-20T00:13:42;98458.47;;;21.08;71.11
7760;BME280;3924;48.830;9.262;2022-08-20T00:16:10;98464.69;;;21.04;71.07
7760;BME280;3924;48.830;9.262;2022-08-20T00:18:38;98464.66;;;21.01;71.04
7760;BME280;3924;48.830;9.262;2022-08-20T00:21:08;98464.56;;;20.97;71.92
7760;BME280;3924;48.830;9.262;2022-08-20T00:23:37;98468.41;;;20.93;71.39
7760;BME280;3924;48.830;9.262;2022-08-20T00:26:05;98475.44;;;20.90;72.29
7760;BME280;3924;48.830;9.262;2022-08-20T00:28:32;98484.09;;;20.89;71.38
7760;BME280;3924;48.830;9.262;2022-08-20T00:31:03;98467.47;;;20.85;71.97
7760;BME280;3924;48.830;9.262;2022-08-20T00:33:32;98472.91;;;20.82;71.76
7760;BME280;3924;48.830;9.262;2022-08-20T00:35:59;98470.06;;;20.78;72.07
7760;BME280;3924;48.830;9.262;2022-08-20T00:38:45;98472.03;;;20.77;71.67
7760;BME280;3924;48.830;9.262;2022-08-20T00:44:08;98470.38;;;20.73;72.04
7760;BME280;3924;48.830;9.262;2022-08-20T00:46:37;98473.47;;;20.71;71.63
7760;BME280;3924;48.830;9.262;2022-08-20T00:49:05;98480.53;;;20.69;71.55
7760;BME280;3924;48.830;9.262;2022-08-20T00:51:40;98477.66;;;20.65;71.64
7760;BME280;3924;48.830;9.262;2022-08-20T00:54:20;98489.06;;;20.64;71.99
7760;BME280;3924;48.830;9.262;2022-08-20T00:56:56;98486.69;;;20.62;72.22
7760;BME280;3924;48.830;9.262;2022-08-20T00:59:26;98481.91;;;20.59;72.12
7760;BME280;3924;48.830;9.262;2022-08-20T01:01:53;98486.59;;;20.59;72.18
7760;BME280;3924;48.830;9.262;2022-08-20T01:04:24;98477.88;;;20.57;72.57
7760;BME280;3924;48.830;9.262;2022-08-20T01:06:52;98482.59;;;20.56;71.98
7760;BME280;3924;48.830;9.262;2022-08-20T01:09:18;98491.66;;;20.57;72.16
7760;BME280;3924;48.830;9.262;2022-08-20T01:12:05;98502.31;;;20.58;71.82
7760;BME280;3924;48.830;9.262;2022-08-20T01:14:32;98500.81;;;20.61;72.09
7760;BME280;3924;48.830;9.262;2022-08-20T01:17:02;98500.81;;;20.61;72.72
7760;BME280;3924;48.830;9.262;2022-08-20T01:19:39;98504.00;;;20.63;72.17
7760;BME280;3924;48.830;9.262;2022-08-20T01:22:07;98496.53;;;20.63;71.69
7760;BME280;3924;48.830;9.262;2022-08-20T01:25:02;98497.31;;;20.64;72.31
7760;BME280;3924;48.830;9.262;2022-08-20T01:27:30;98497.31;;;20.64;72.19
7760;BME280;3924;48.830;9.262;2022-08-20T01:30:00;98502.03;;;20.63;71.95
7760;BME280;3924;48.830;9.262;2022-08-20T01:32:32;98494.56;;;20.64;71.79
7760;BME280;3924;48.830;9.262;2022-08-20T01:34:58;98499.28;;;20.63;71.95
7760;BME280;3924;48.830;9.262;2022-08-20T01:37:25;98500.88;;;20.64;72.32
7760;BME280;3924;48.830;9.262;2022-08-20T01:39:57;98508.34;;;20.64;72.35
7760;BME280;3924;48.830;9.262;2022-08-20T01:42:33;98509.59;;;20.66;71.87
7760;BME280;3924;48.830;9.262;2022-08-20T01:45:19;98517.41;;;20.64;71.42
7760;BME280;3924;48.830;9.262;2022-08-20T01:47:52;98518.19;;;20.65;71.82
7760;BME280;3924;48.830;9.262;2022-08-20T01:50:25;98511.91;;;20.64;72.04
7760;BME280;3924;48.830;9.262;2022-08-20T01:53:11;98518.19;;;20.65;72.04
7760;BME280;3924;48.830;9.262;2022-08-20T01:55:40;98518.94;;;20.62;71.73
7760;BME280;3924;48.830;9.262;2022-08-20T01:58:06;98528.38;;;20.61;72.05
7760;BME280;3924;48.830;9.262;2022-08-20T02:00:33;98529.97;;;20.62;72.28
7760;BME280;3924;48.830;9.262;2022-08-20T02:03:01;98521.25;;;20.60;72.34
7760;BME280;3924;48.830;9.262;2022-08-20T02:05:34;98533.06;;;20.60;71.95
7760;BME280;3924;48.830;9.262;2022-08-20T02:08:01;98533.88;;;20.61;72.00
7760;BME280;3924;48.830;9.262;2022-08-20T02:10:28;98528.72;;;20.59;72.59
7760;BME280;3924;48.830;9.262;2022-08-20T02:12:58;98529.06;;;20.58;71.98
7760;BME280;3924;48.830;9.262;2022-08-20T02:15:26;98529.06;;;20.58;72.16
7760;BME280;3924;48.830;9.262;2022-08-20T02:18:05;98533.78;;;20.57;71.94
7760;BME280;3924;48.830;9.262;2022-08-20T02:20:33;98527.03;;;20.55;71.90
7760;BME280;3924;48.830;9.262;2022-08-20T02:23:01;98532.91;;;20.53;71.98
7760;BME280;3924;48.830;9.262;2022-08-20T02:25:33;98527.75;;;20.52;72.75
7760;BME280;3924;48.830;9.262;2022-08-20T02:28:04;98540.66;;;20.47;72.44
7760;BME280;3924;48.830;9.262;2022-08-20T02:30:38;98540.22;;;20.45;72.41
7760;BME280;3924;48.830;9.262;2022-08-20T02:33:07;98545.25;;;20.43;72.42
7760;BME280;3924;48.830;9.262;2022-08-20T02:35:35;98539.31;;;20.41;72.75
7760;BME280;3924;48.830;9.262;2022-08-20T02:38:02;98539.66;;;20.40;72.72
7760;BME280;3924;48.830;9.262;2022-08-20T02:40:29;98534.16;;;20.40;72.65
7760;BME280;3924;48.830;9.262;2022-08-20T02:43:01;98534.16;;;20.40;72.80
7760;BME280;3924;48.830;9.262;2022-08-20T02:45:29;98532.56;;;20.39;73.03
7760;BME280;3924;48.830;9.262;2022-08-20T02:47:56;98530.94;;;20.38;73.20
7760;BME280;3924;48.830;9.262;2022-08-20T02:50:26;98530.50;;;20.36;72.87
7760;BME280;3924;48.830;9.262;2022-08-20T02:52:52;98534.06;;;20.36;73.51
7760;BME280;3924;48.830;9.262;2022-08-20T02:55:20;98520.66;;;20.35;73.03
7760;BME280;3924;48.830;9.262;2022-08-20T02:57:57;98524.19;;;20.35;73.07
7760;BME280;3924;48.830;9.262;2022-08-20T03:00:28;98517.09;;;20.34;72.98
7760;BME280;3924;48.830;9.262;2022-08-20T03:03:04;98516.66;;;20.32;72.50
7760;BME280;3924;48.830;9.262;2022-08-20T03:05:30;98510.38;;;20.32;72.76
7760;BME280;3924;48.830;9.262;2022-08-20T03:07:57;98517.38;;;20.29;72.84
7760;BME280;3924;48.830;9.262;2022-08-20T03:10:32;98511.44;;;20.27;73.35
7760;BME280;3924;48.830;9.262;2022-08-20T03:13:00;98517.31;;;20.26;73.26
7760;BME280;3924;48.830;9.262;2022-08-20T03:15:32;98518.47;;;20.25;73.09
7760;BME280;3924;48.830;9.262;2022-08-20T03:17:59;98511.69;;;20.22;72.81
7760;BME280;3924;48.830;9.262;2022-08-20T03:20:26;98519.59;;;20.23;73.12
7760;BME280;3924;48.830;9.262;2022-08-20T03:22:53;98517.31;;;20.26;72.85
7760;BME280;3924;48.830;9.262;2022-08-20T03:25:20;98511.44;;;20.27;73.64
7760;BME280;3924;48.830;9.262;2022-08-20T03:27:47;98513.03;;;20.28;73.01
7760;BME280;3924;48.830;9.262;2022-08-20T03:30:21;98514.97;;;20.28;72.98
7760;BME280;3924;48.830;9.262;2022-08-20T03:32:47;98517.38;;;20.29;73.13
7760;BME280;3924;48.830;9.262;2022-08-20T03:35:15;98516.56;;;20.29;73.33
7760;BME280;3924;48.830;9.262;2022-08-20T03:37:43;98515.78;;;20.28;72.98
7760;BME280;3924;48.830;9.262;2022-08-20T03:40:21;98513.03;;;20.28;73.06
7760;BME280;3924;48.830;9.262;2022-08-20T03:42:48;98512.66;;;20.30;73.55
7760;BME280;3924;48.830;9.262;2022-08-20T03:45:14;98515.41;;;20.30;73.32
7760;BME280;3924;48.830;9.262;2022-08-20T03:47:46;98509.47;;;20.28;73.67
7760;BME280;3924;48.830;9.262;2022-08-20T03:50:13;98514.97;;;20.28;73.24
7760;BME280;3924;48.830;9.262;2022-08-20T03:52:49;98518.09;;;20.26;73.61
7760;BME280;3924;48.830;9.262;2022-08-20T03:55:16;98522.00;;;20.25;73.33
7760;BME280;3924;48.830;9.262;2022-08-20T03:57:47;98528.66;;;20.24;73.30
7760;BME280;3924;48.830;9.262;2022-08-20T04:00:19;98525.91;;;20.24;73.47
7760;BME280;3924;48.830;9.262;2022-08-20T04:02:46;98527.53;;;20.25;73.46
7760;BME280;3924;48.830;9.262;2022-08-20T04:05:13;98531.41;;;20.24;73.67
7760;BME280;3924;48.830;9.262;2022-08-20T04:07:40;98528.22;;;20.22;74.10
7760;BME280;3924;48.830;9.262;2022-08-20T04:10:09;98534.53;;;20.22;73.62
7760;BME280;3924;48.830;9.262;2022-08-20T04:12:36;98529.81;;;20.23;73.24
7760;BME280;3924;48.830;9.262;2022-08-20T04:15:17;98531.41;;;20.24;72.95
7760;BME280;3924;48.830;9.262;2022-08-20T04:17:46;98520.38;;;20.24;73.56
7760;BME280;3924;48.830;9.262;2022-08-20T04:20:17;98525.91;;;20.24;73.30
7760;BME280;3924;48.830;9.262;2022-08-20T04:22:50;98533.34;;;20.23;73.68
7760;BME280;3924;48.830;9.262;2022-08-20T04:25:26;98531.41;;;20.24;73.49
7760;BME280;3924;48.830;9.262;2022-08-20T04:27:55;98540.13;;;20.26;73.82
7760;BME280;3924;48.830;9.262;2022-08-20T04:30:23;98547.22;;;20.27;73.13
7760;BME280;3924;48.830;9.262;2022-08-20T04:32:50;98541.72;;;20.27;73.50
7760;BME280;3924;48.830;9.262;2022-08-20T04:35:17;98545.69;;;20.30;73.88
7760;BME280;3924;48.830;9.262;2022-08-20T04:37:45;98548.09;;;20.31;74.38
7760;BME280;3924;48.830;9.262;2022-08-20T04:40:16;98548.91;;;20.32;73.70
7760;BME280;3924;48.830;9.262;2022-08-20T04:43:03;98541.78;;;20.31;73.49
7760;BME280;3924;48.830;9.262;2022-08-20T04:45:32;98545.34;;;20.31;73.48
7760;BME280;3924;48.830;9.262;2022-08-20T04:48:04;98546.50;;;20.30;73.69
7760;BME280;3924;48.830;9.262;2022-08-20T04:50:33;98548.09;;;20.31;73.87
7760;BME280;3924;48.830;9.262;2022-08-20T04:53:06;98549.72;;;20.32;73.99
7760;BME280;3924;48.830;9.262;2022-08-20T04:55:34;98552.09;;;20.34;73.62
7760;BME280;3924;48.830;9.262;2022-08-20T04:58:06;98544.28;;;20.36;73.58
7760;BME280;3924;48.830;9.262;2022-08-20T05:00:33;98550.94;;;20.35;73.57
7760;BME280;3924;48.830;9.262;2022-08-20T05:02:59;98555.72;;;20.38;73.45
7760;BME280;3924;48.830;9.262;2022-08-20T05:05:26;98550.69;;;20.40;73.77
7760;BME280;3924;48.830;9.262;2022-08-20T05:07:53;98554.22;;;20.40;73.81
7760;BME280;3924;48.830;9.262;2022-08-20T05:10:21;98559.50;;;20.45;73.63
7760;BME280;3924;48.830;9.262;2022-08-20T05:12:48;98564.28;;;20.48;73.66
7760;BME280;3924;48.830;9.262;2022-08-20T05:15:22;98567.94;;;20.53;73.78
7760;BME280;3924;48.830;9.262;2022-08-20T05:17:54;98566.78;;;20.54;73.56
7760;BME280;3924;48.830;9.262;2022-08-20T05:20:21;98567.13;;;20.52;73.81
7760;BME280;3924;48.830;9.262;2022-08-20T05:22:48;98573.44;;;20.53;73.75
7760;BME280;3924;48.830;9.262;2022-08-20T05:25:14;98580.81;;;20.48;73.69
7760;BME280;3924;48.830;9.262;2022-08-20T05:27:41;98579.22;;;20.47;73.78
7760;BME280;3924;48.830;9.262;2022-08-20T05:30:13;98582.34;;;20.46;73.74
7760;BME280;3924;48.830;9.262;2022-08-20T05:32:40;98588.63;;;20.46;73.62
7760;BME280;3924;48.830;9.262;2022-08-20T05:35:09;98589.66;;;20.42;74.14
7760;BME280;3924;48.830;9.262;2022-08-20T05:37:39;98593.41;;;20.34;74.64
7760;BME280;3924;48.830;9.262;2022-08-20T05:40:11;98589.69;;;20.26;74.65
7760;BME280;3924;48.830;9.262;2022-08-20T05:42:40;98596.63;;;20.20;74.98
7760;BME280;3924;48.830;9.262;2022-08-20T05:45:06;98596.97;;;20.18;74.96
7760;BME280;3924;48.830;9.262;2022-08-20T05:47:38;98605.94;;;20.15;75.03
7760;BME280;3924;48.830;9.262;2022-08-20T05:50:10;98601.94;;;20.13;75.50
7760;BME280;3924;48.830;9.262;2022-08-20T05:52:48;98602.81;;;20.17;75.15
7760;BME280;3924;48.830;9.262;2022-08-20T05:55:15;98602.13;;;20.20;75.17
7760;BME280;3924;48.830;9.262;2022-08-20T05:57:42;98598.94;;;20.18;75.18
7760;BME280;3924;48.830;9.262;2022-08-20T06:00:12;98603.53;;;20.14;75.23
7760;BME280;3924;48.830;9.262;2022-08-20T06:02:39;98599.44;;;20.08;74.92
7760;BME280;3924;48.830;9.262;2022-08-20T06:05:24;98597.66;;;20.00;75.42
7760;BME280;3924;48.830;9.262;2022-08-20T06:07:52;98599.88;;;19.94;75.83
7760;BME280;3924;48.830;9.262;2022-08-20T06:10:31;98601.56;;;19.99;75.57
7760;BME280;3924;48.830;9.262;2022-08-20T06:12:58;98603.72;;;20.05;75.60
7760;BME280;3924;48.830;9.262;2022-08-20T06:15:24;98597.59;;;20.12;75.69
7760;BME280;3924;48.830;9.262;2022-08-20T06:17:51;98604.16;;;20.23;75.66
7760;BME280;3924;48.830;9.262;2022-08-20T06:20:24;98602.03;;;20.32;75.48
7760;BME280;3924;48.830;9.262;2022-08-20T06:22:51;98605.81;;;20.43;75.27
7760;BME280;3924;48.830;9.262;2022-08-20T06:25:18;98604.22;;;20.42;74.93
7760;BME280;3924;48.830;9.262;2022-08-20T06:27:44;98603.81;;;20.40;74.90
7760;BME280;3924;48.830;9.262;2022-08-20T06:30:12;98605.75;;;20.40;75.27
7760;BME280;3924;48.830;9.262;2022-08-20T06:32:40;98611.34;;;20.43;75.72
7760;BME280;3924;48.830;9.262;2022-08-20T06:35:08;98611.09;;;20.48;75.22
7760;BME280;3924;48.830;9.262;2022-08-20T06:37:37;98601.41;;;20.55;75.03
7760;BME280;3924;48.830;9.262;2022-08-20T06:40:16;98603.19;;;20.63;75.24
7760;BME280;3924;48.830;9.262;2022-08-20T06:42:45;98604.06;;;20.67;75.40
7760;BME280;3924;48.830;9.262;2022-08-20T06:45:20;98606.81;;;20.67;75.19
7760;BME280;3924;48.830;9.262;2022-08-20T06:47:50;98607.25;;;20.69;75.02
7760;BME280;3924;48.830;9.262;2022-08-20T06:50:20;98616.84;;;20.75;75.81
7760;BME280;3924;48.830;9.262;2022-08-20T06:52:47;98617.28;;;20.77;74.98
7760;BME280;3924;48.830;9.262;2022-08-20T06:55:19;98621.47;;;20.71;74.84
7760;BME280;3924;48.830;9.262;2022-08-20T06:57:45;98615.97;;;20.71;75.03
7760;BME280;3924;48.830;9.262;2022-08-20T07:00:16;98614.09;;;20.75;75.39
7760;BME280;3924;48.830;9.262;2022-08-20T07:02:43;98617.00;;;20.82;75.39
7760;BME280;3924;48.830;9.262;2022-08-20T07:05:12;98613.53;;;20.85;74.96
7760;BME280;3924;48.830;9.262;2022-08-20T07:07:43;98622.31;;;20.91;74.91
7760;BME280;3924;48.830;9.262;2022-08-20T07:10:12;98616.16;;;20.97;75.16
7760;BME280;3924;48.830;9.262;2022-08-20T07:12:39;98610.38;;;21.02;74.36
7760;BME280;3924;48.830;9.262;2022-08-20T07:15:07;98625.50;;;21.09;74.56
7760;BME280;3924;48.830;9.262;2022-08-20T07:17:35;98622.72;;;21.09;74.52
7760;BME280;3924;48.830;9.262;2022-08-20T07:20:04;98620.34;;;21.07;74.83
7760;BME280;3924;48.830;9.262;2022-08-20T07:22:31;98617.13;;;21.05;74.79
7760;BME280;3924;48.830;9.262;2022-08-20T07:25:00;98621.78;;;21.01;74.76
7760;BME280;3924;48.830;9.262;2022-08-20T07:27:28;98622.84;;;20.96;74.59
7760;BME280;3924;48.830;9.262;2022-08-20T07:29:54;98628.34;;;20.96;75.33
7760;BME280;3924;48.830;9.262;2022-08-20T07:32:40;98633.06;;;20.96;74.84
7760;BME280;3924;48.830;9.262;2022-08-20T07:35:12;98631.13;;;20.96;76.03
7760;BME280;3924;48.830;9.262;2022-08-20T07:37:41;98635.91;;;20.99;75.16
7760;BME280;3924;48.830;9.262;2022-08-20T07:40:14;98638.09;;;21.10;75.45
7760;BME280;3924;48.830;9.262;2022-08-20T07:42:41;98633.13;;;21.15;75.34
7760;BME280;3924;48.830;9.262;2022-08-20T07:45:10;98635.22;;;21.22;74.95
7760;BME280;3924;48.830;9.262;2022-08-20T07:47:38;98645.53;;;21.25;74.73
7760;BME280;3924;48.830;9.262;2022-08-20T07:50:06;98650.06;;;21.33;75.22
7760;BME280;3924;48.830;9.262;2022-08-20T07:52:33;98647.59;;;21.47;74.72
7760;BME280;3924;48.830;9.262;2022-08-20T07:55:05;98644.41;;;21.65;74.21
7760;BME280;3924;48.830;9.262;2022-08-20T07:57:32;98652.56;;;21.77;74.41
7760;BME280;3924;48.830;9.262;2022-08-20T07:59:59;98649.59;;;21.89;73.94
7760;BME280;3924;48.830;9.262;2022-08-20T08:02:28;98649.81;;;22.00;73.36
7760;BME280;3924;48.830;9.262;2022-08-20T08:04:55;98636.94;;;22.07;73.40
7760;BME280;3924;48.830;9.262;2022-08-20T08:07:22;98643.50;;;22.19;72.77
7760;BME280;3924;48.830;9.262;2022-08-20T08:09:50;98641.66;;;22.26;73.55
7760;BME280;3924;48.830;9.262;2022-08-20T08:12:17;98646.44;;;22.29;73.57
7760;BME280;3924;48.830;9.262;2022-08-20T08:14:44;98646.13;;;22.34;73.08
7760;BME280;3924;48.830;9.262;2022-08-20T08:17:13;98640.56;;;22.31;73.00
7760;BME280;3924;48.830;9.262;2022-08-20T08:19:46;98631.94;;;22.36;72.97
7760;BME280;3924;48.830;9.262;2022-08-20T08:22:17;98642.38;;;22.46;72.77
7760;BME280;3924;48.830;9.262;2022-08-20T08:24:45;98635.75;;;22.51;72.90
7760;BME280;3924;48.830;9.262;2022-08-20T08:27:23;98630.19;;;22.74;71.52
7760;BME280;3924;48.830;9.262;2022-08-20T08:29:49;98628.09;;;22.90;71.67
7760;BME280;3924;48.830;9.262;2022-08-20T08:32:16;98625.97;;;23.06;71.44
7760;BME280;3924;48.830;9.262;2022-08-20T08:34:42;98617.41;;;23.18;71.11
7760;BME280;3924;48.830;9.262;2022-08-20T08:37:13;98619.84;;;23.20;71.06
7760;BME280;3924;48.830;9.262;2022-08-20T08:39:39;98623.53;;;23.01;71.36
7760;BME280;3924;48.830;9.262;2022-08-20T08:42:21;98630.94;;;22.71;72.13
7760;BME280;3924;48.830;9.262;2022-08-20T08:44:51;98628.19;;;22.48;72.19
7760;BME280;3924;48.830;9.262;2022-08-20T08:47:38;98642.16;;;22.32;73.14
7760;BME280;3924;48.830;9.262;2022-08-20T08:50:09;98632.88;;;22.21;72.53
7760;BME280;3924;48.830;9.262;2022-08-20T08:52:39;98633.75;;;22.25;73.20
7760;BME280;3924;48.830;9.262;2022-08-20T08:55:10;98629.38;;;22.24;72.94
7760;BME280;3924;48.830;9.262;2022-08-20T08:57:41;98641.28;;;22.28;72.90
7760;BME280;3924;48.830;9.262;2022-08-20T09:00:13;98638.22;;;22.33;72.33
7760;BME280;3924;48.830;9.262;2022-08-20T09:03:03;98631.16;;;22.35;72.98
7760;BME280;3924;48.830;9.262;2022-08-20T09:05:44;98635.16;;;22.38;73.06
7760;BME280;3924;48.830;9.262;2022-08-20T09:08:13;98632.03;;;22.39;72.00
7760;BME280;3924;48.830;9.262;2022-08-20T09:10:42;98629.31;;;22.43;72.88
7760;BME280;3924;48.830;9.262;2022-08-20T09:13:11;98625.41;;;22.44;72.32
7760;BME280;3924;48.830;9.262;2022-08-20T09:15:37;98627.81;;;22.49;72.27
7760;BME280;3924;48.830;9.262;2022-08-20T09:18:04;98628.28;;;22.51;72.79
7760;BME280;3924;48.830;9.262;2022-08-20T09:20:30;98629.59;;;22.61;71.63
7760;BME280;3924;48.830;9.262;2022-08-20T09:22:57;98629.28;;;22.89;71.49
7760;BME280;3924;48.830;9.262;2022-08-20T09:25:24;98622.22;;;23.22;70.36
7760;BME280;3924;48.830;9.262;2022-08-20T09:27:50;98619.84;;;23.84;69.35
7760;BME280;3924;48.830;9.262;2022-08-20T09:30:17;98619.28;;;24.08;68.52
7760;BME280;3924;48.830;9.262;2022-08-20T09:32:44;98630.22;;;23.94;68.39
7760;BME280;3924;48.830;9.262;2022-08-20T09:35:11;98620.81;;;23.65;68.63
7760;BME280;3924;48.830;9.262;2022-08-20T09:37:38;98620.31;;;23.59;68.73
7760;BME280;3924;48.830;9.262;2022-08-20T09:40:06;98617.91;;;23.54;68.59
7760;BME280;3924;48.830;9.262;2022-08-20T09:42:35;98626.16;;;23.51;68.64
7760;BME280;3924;48.830;9.262;2022-08-20T09:45:07;98620.13;;;23.45;69.26
7760;BME280;3924;48.830;9.262;2022-08-20T09:47:37;98613.72;;;23.37;69.20
7760;BME280;3924;48.830;9.262;2022-08-20T09:50:09;98616.78;;;23.29;68.55
7760;BME280;3924;48.830;9.262;2022-08-20T09:52:45;98606.84;;;23.24;69.23
7760;BME280;3924;48.830;9.262;2022-08-20T09:57:42;98614.50;;;23.34;68.60
7760;BME280;3924;48.830;9.262;2022-08-20T10:00:09;98612.88;;;23.33;68.76
7760;BME280;3924;48.830;9.262;2022-08-20T10:02:45;98611.66;;;23.31;68.85
7760;BME280;3924;48.830;9.262;2022-08-20T10:05:12;98619.16;;;23.30;68.86
7760;BME280;3924;48.830;9.262;2022-08-20T10:07:40;98622.00;;;23.34;68.25
7760;BME280;3924;48.830;9.262;2022-08-20T10:10:09;98619.31;;;23.41;68.39
7760;BME280;3924;48.830;9.262;2022-08-20T10:12:36;98632.06;;;23.49;67.61
7760;BME280;3924;48.830;9.262;2022-08-20T10:15:02;98627.25;;;23.46;67.51
7760;BME280;3924;48.830;9.262;2022-08-20T10:17:29;98625.19;;;23.36;67.73
7760;BME280;3924;48.830;9.262;2022-08-20T10:19:56;98626.38;;;23.38;68.03
7760;BME280;3924;48.830;9.262;2022-08-20T10:22:22;98636.75;;;23.45;67.67
7760;BME280;3924;48.830;9.262;2022-08-20T10:24:49;98626.19;;;23.54;67.03
7760;BME280;3924;48.830;9.262;2022-08-20T10:27:16;98615.66;;;23.63;67.34
7760;BME280;3924;48.830;9.262;2022-08-20T10:29:42;98619.75;;;23.77;66.90
7760;BME280;3924;48.830;9.262;2022-08-20T10:32:13;98624.44;;;23.72;67.13
7760;BME280;3924;48.830;9.262;2022-08-20T10:34:42;98617.44;;;23.48;67.27
7760;BME280;3924;48.830;9.262;2022-08-20T10:37:14;98623.13;;;23.29;68.07
7760;BME280;3924;48.830;9.262;2022-08-20T10:39:40;98624.03;;;23.10;68.33
7760;BME280;3924;48.830;9.262;2022-08-20T10:42:07;98621.44;;;22.95;68.14
7760;BME280;3924;48.830;9.262;2022-08-20T10:44:33;98622.31;;;22.76;68.38
7760;BME280;3924;48.830;9.262;2022-08-20T10:47:35;98621.25;;;22.57;69.33
7760;BME280;3924;48.830;9.262;2022-08-20T10:50:04;98614.09;;;22.53;68.93
7760;BME280;3924;48.830;9.262;2022-08-20T10:52:31;98620.03;;;22.55;69.61
7760;BME280;3924;48.830;9.262;2022-08-20T10:54:58;98616.09;;;22.56;69.02
7760;BME280;3924;48.830;9.262;2022-08-20T10:57:26;98602.28;;;22.56;69.12
7760;BME280;3924;48.830;9.262;2022-08-20T10:59:55;98604.75;;;22.64;68.97
7760;BME280;3924;48.830;9.262;2022-08-20T11:02:23;98605.72;;;22.76;68.18
7760;BME280;3924;48.830;9.262;2022-08-20T11:04:50;98608.19;;;22.81;67.99
7760;BME280;3924;48.830;9.262;2022-08-20T11:07:28;98619.63;;;22.79;68.45
7760;BME280;3924;48.830;9.262;2022-08-20T11:10:15;98623.59;;;22.82;67.76
7760;BME280;3924;48.830;9.262;2022-08-20T11:12:43;98616.09;;;22.82;68.52
7760;BME280;3924;48.830;9.262;2022-08-20T11:15:12;98609.03;;;22.85;68.13
7760;BME280;3924;48.830;9.262;2022-08-20T11:17:40;98625.28;;;22.86;67.98
7760;BME280;3924;48.830;9.262;2022-08-20T11:20:09;98617.78;;;22.87;67.17
7760;BME280;3924;48.830;9.262;2022-08-20T11:22:36;98614.69;;;22.92;67.45
7760;BME280;3924;48.830;9.262;2022-08-20T11:25:04;98628.09;;;22.90;67.66
7760;BME280;3924;48.830;9.262;2022-08-20T11:27:33;98623.75;;;22.89;67.80
7760;BME280;3924;48.830;9.262;2022-08-20T11:30:01;98629.28;;;22.89;67.76
7760;BME280;3924;48.830;9.262;2022-08-20T11:32:27;98630.53;;;22.95;67.45
7760;BME280;3924;48.830;9.262;2022-08-20T11:34:54;98625.44;;;22.97;67.11
7760;BME280;3924;48.830;9.262;2022-08-20T11:37:22;98617.91;;;22.94;67.35
7760;BME280;3924;48.830;9.262;2022-08-20T11:39:50;98621.50;;;22.98;66.71
7760;BME280;3924;48.830;9.262;2022-08-20T11:42:17;98623.94;;;23.03;66.16
7760;BME280;3924;48.830;9.262;2022-08-20T11:44:44;98627.22;;;23.12;66.92
7760;BME280;3924;48.830;9.262;2022-08-20T11:47:20;98627.31;;;23.19;66.53
7760;BME280;3924;48.830;9.262;2022-08-20T11:49:55;98631.78;;;23.28;66.23
7760;BME280;3924;48.830;9.262;2022-08-20T11:52:22;98627.88;;;23.32;65.92
7760;BME280;3924;48.830;9.262;2022-08-20T11:54:50;98633.50;;;23.39;65.48
7760;BME280;3924;48.830;9.262;2022-08-20T11:57:30;98629.59;;;23.40;65.75
7760;BME280;3924;48.830;9.262;2022-08-20T11:59:58;98639.00;;;23.36;65.66
7760;BME280;3924;48.830;9.262;2022-08-20T12:02:26;98640.19;;;23.35;65.14
7760;BME280;3924;48.830;9.262;2022-08-20T12:04:55;98631.88;;;23.35;65.19
7760;BME280;3924;48.830;9.262;2022-08-20T12:07:23;98640.91;;;23.32;64.96
7760;BME280;3924;48.830;9.262;2022-08-20T12:09:50;98641.28;;;23.27;65.73
7760;BME280;3924;48.830;9.262;2022-08-20T12:12:18;98649.03;;;23.17;65.25
7760;BME280;3924;48.830;9.262;2022-08-20T12:14:45;98652.00;;;23.05;65.53
7760;BME280;3924;48.830;9.262;2022-08-20T12:17:30;98659.00;;;22.96;66.40
7760;BME280;3924;48.830;9.262;2022-08-20T12:20:00;98654.78;;;22.79;66.09
7760;BME280;3924;48.830;9.262;2022-08-20T12:22:27;98657.72;;;22.66;66.54
7760;BME280;3924;48.830;9.262;2022-08-20T12:24:54;98646.97;;;22.61;66.46
7760;BME280;3924;48.830;9.262;2022-08-20T12:27:24;98643.41;;;22.61;66.86
7760;BME280;3924;48.830;9.262;2022-08-20T12:29:54;98648.19;;;22.64;66.96
7760;BME280;3924;48.830;9.262;2022-08-20T12:32:23;98646.66;;;22.66;66.47
7760;BME280;3924;48.830;9.262;2022-08-20T12:34:50;98646.28;;;22.68;66.13
7760;BME280;3924;48.830;9.262;2022-08-20T12:37:20;98646.22;;;22.64;66.53
7760;BME280;3924;48.830;9.262;2022-08-20T12:39:50;98634.63;;;22.55;67.24
7760;BME280;3924;48.830;9.262;2022-08-20T12:42:18;98633.53;;;22.37;67.27
7760;BME280;3924;48.830;9.262;2022-08-20T12:44:45;98634.84;;;22.20;68.04
7760;BME280;3924;48.830;9.262;2022-08-20T12:47:18;98630.63;;;22.07;68.71
7760;BME280;3924;48.830;9.262;2022-08-20T12:49:47;98631.28;;;22.00;69.36
7760;BME280;3924;48.830;9.262;2022-08-20T12:52:16;98630.44;;;21.96;69.45
7760;BME280;3924;48.830;9.262;2022-08-20T12:54:44;98626.81;;;21.92;69.99
7760;BME280;3924;48.830;9.262;2022-08-20T12:57:32;98631.16;;;21.93;69.74
7760;BME280;3924;48.830;9.262;2022-08-20T13:00:17;98642.94;;;21.90;70.58
7760;BME280;3924;48.830;9.262;2022-08-20T13:02:47;98649.97;;;21.88;71.00
7760;BME280;3924;48.830;9.262;2022-08-20T13:05:14;98669.44;;;21.75;71.48
7760;BME280;3924;48.830;9.262;2022-08-20T13:07:42;98675.91;;;21.09;72.14
7760;BME280;3924;48.830;9.262;2022-08-20T13:10:22;98676.88;;;20.22;74.17
7760;BME280;3924;48.830;9.262;2022-08-20T13:12:49;98676.53;;;19.80;75.53
7760;BME280;3924;48.830;9.262;2022-08-20T13:15:17;98678.22;;;19.56;76.15
7760;BME280;3924;48.830;9.262;2022-08-20T13:17:49;98669.84;;;19.53;76.62
7760;BME280;3924;48.830;9.262;2022-08-20T13:20:16;98671.88;;;19.68;76.90
7760;BME280;3924;48.830;9.262;2022-08-20T13:22:43;98654.00;;;19.90;76.80
7760;BME280;3924;48.830;9.262;2022-08-20T13:25:11;98654.41;;;20.04;77.04
7760;BME280;3924;48.830;9.262;2022-08-20T13:27:42;98658.16;;;20.28;76.79
7760;BME280;3924;48.830;9.262;2022-08-20T13:30:13;98658.47;;;20.54;76.64
7760;BME280;3924;48.830;9.262;2022-08-20T13:32:40;98664.75;;;20.70;76.63
7760;BME280;3924;48.830;9.262;2022-08-20T13:35:07;98654.53;;;20.87;76.69
7760;BME280;3924;48.830;9.262;2022-08-20T13:37:34;98651.31;;;21.00;76.85
7760;BME280;3924;48.830;9.262;2022-08-20T13:40:02;98648.97;;;21.02;76.85
7760;BME280;3924;48.830;9.262;2022-08-20T13:42:29;98653.06;;;21.09;76.96